createdAt,value
2018-03-02T00:01:06.207Z,26.05
2018-03-02T00:03:35.261Z,38.65
2018-03-02T00:06:03.529Z,33.47
2018-03-02T00:08:31.812Z,35.78
2018-03-02T00:11:00.089Z,30.17
2018-03-02T00:13:29.125Z,31.27
2018-03-02T00:15:57.404Z,33.47
2018-03-02T00:18:27.620Z,42.50
2018-03-02T00:20:56.664Z,39.08
2018-03-02T00:23:24.937Z,33.75
2018-03-02T00:25:53.222Z,42.25
2018-03-02T00:28:21.497Z,33.00
2018-03-02T00:30:49.776Z,35.60
2018-03-02T00:33:18.804Z,37.72
2018-03-02T00:35:47.084Z,43.15
2018-03-02T00:38:15.355Z,45.70
2018-03-02T00:40:44.405Z,41.10
2018-03-02T00:43:12.677Z,43.15
2018-03-02T00:45:40.964Z,48.08
2018-03-02T00:48:09.256Z,42.05
2018-03-02T00:50:37.508Z,40.70
2018-03-02T00:53:06.544Z,36.60
2018-03-02T00:55:34.828Z,42.53
2018-03-02T00:58:03.095Z,40.80
2018-03-02T01:00:32.148Z,44.28
2018-03-02T01:03:00.420Z,42.72
2018-03-02T01:05:28.704Z,39.67
2018-03-02T01:07:57.296Z,44.85
2018-03-02T01:10:25.575Z,41.03
2018-03-02T01:12:53.848Z,43.85
2018-03-02T01:15:22.897Z,44.28
2018-03-02T01:17:51.166Z,42.88
2018-03-02T01:20:19.451Z,41.10
2018-03-02T01:22:47.717Z,41.90
2018-03-02T01:25:16.760Z,43.80
2018-03-02T01:27:45.033Z,37.97
2018-03-02T01:30:13.313Z,42.50
2018-03-02T01:32:41.581Z,45.22
2018-03-02T01:35:10.628Z,41.45
2018-03-02T01:37:38.897Z,41.97
2018-03-02T01:40:07.177Z,42.92
2018-03-02T01:42:35.448Z,44.10
2018-03-02T01:45:04.596Z,40.97
2018-03-02T01:47:32.868Z,41.55
2018-03-02T01:50:01.150Z,38.30
2018-03-02T01:52:29.415Z,46.17
2018-03-02T01:54:58.462Z,45.20
2018-03-02T01:57:26.737Z,39.03
2018-03-02T01:59:55.016Z,44.20
2018-03-02T02:02:24.052Z,44.03
2018-03-02T02:04:52.332Z,59.17
2018-03-02T02:07:20.600Z,53.75
2018-03-02T02:09:48.876Z,47.92
2018-03-02T02:12:17.912Z,50.15
2018-03-02T02:14:46.196Z,59.35
2018-03-02T02:17:15.237Z,61.00
2018-03-02T02:19:43.520Z,49.97
2018-03-02T02:22:11.796Z,46.05
2018-03-02T02:24:40.092Z,46.97
2018-03-02T02:27:08.361Z,52.13
2018-03-02T02:29:36.640Z,44.28
2018-03-02T02:32:04.913Z,44.83
2018-03-02T02:34:33.966Z,47.83
2018-03-02T02:37:02.257Z,42.00
2018-03-02T02:39:30.536Z,38.40
2018-03-02T02:41:58.810Z,41.80
2018-03-02T02:44:27.084Z,25.80
2018-03-02T02:46:55.344Z,36.70
2018-03-02T02:49:24.410Z,46.20
2018-03-02T02:51:52.691Z,39.05
2018-03-02T02:54:21.880Z,43.58
2018-03-02T02:56:50.161Z,52.85
2018-03-02T02:59:18.437Z,42.60
2018-03-02T03:01:47.493Z,46.90
2018-03-02T03:04:15.765Z,43.38
2018-03-02T03:06:44.044Z,41.25
2018-03-02T03:09:12.316Z,45.58
2018-03-02T03:11:40.596Z,47.70
2018-03-02T03:14:09.632Z,47.78
2018-03-02T03:16:37.907Z,44.03
2018-03-02T03:19:06.180Z,44.53
2018-03-02T03:21:35.233Z,43.87
2018-03-02T03:24:03.500Z,42.25
2018-03-02T03:26:31.784Z,44.70
2018-03-02T03:29:00.056Z,48.53
2018-03-02T03:31:29.117Z,46.17
2018-03-02T03:33:57.380Z,45.80
2018-03-02T03:36:25.660Z,48.45
2018-03-02T03:38:53.927Z,44.13
2018-03-02T03:41:22.207Z,47.65
2018-03-02T03:43:51.255Z,48.42
2018-03-02T03:46:19.517Z,46.03
2018-03-02T03:48:47.805Z,43.87
2018-03-02T03:51:16.126Z,51.63
2018-03-02T03:53:45.132Z,45.58
2018-03-02T03:56:13.400Z,43.20
2018-03-02T03:58:42.283Z,45.03
2018-03-02T04:01:10.560Z,45.12
2018-03-02T04:03:40.517Z,43.03
2018-03-02T04:06:09.723Z,39.53
2018-03-02T04:08:37.991Z,42.62
2018-03-02T04:11:07.020Z,41.40
2018-03-02T04:13:35.300Z,44.88
2018-03-02T04:16:03.572Z,39.95
2018-03-02T04:18:32.620Z,45.97
2018-03-02T04:21:00.887Z,45.05
2018-03-02T04:23:29.171Z,40.22
2018-03-02T04:25:57.559Z,39.83
2018-03-02T04:28:25.843Z,43.13
2018-03-02T04:30:54.111Z,46.78
2018-03-02T04:33:23.190Z,44.85
2018-03-02T04:35:51.432Z,38.90
2018-03-02T04:38:19.713Z,42.03
2018-03-02T04:40:47.984Z,45.60
2018-03-02T04:43:17.020Z,42.97
2018-03-02T04:45:45.308Z,41.80
2018-03-02T04:48:13.579Z,45.47
2018-03-02T04:50:41.855Z,44.17
2018-03-02T04:53:10.891Z,39.30
2018-03-02T04:55:39.172Z,39.67
2018-03-02T04:58:07.460Z,38.72
2018-03-02T05:00:35.741Z,36.90
2018-03-02T05:03:04.013Z,37.00
2018-03-02T05:05:33.064Z,38.50
2018-03-02T05:08:01.343Z,40.10
2018-03-02T05:10:29.632Z,39.22
2018-03-02T05:12:57.906Z,38.72
2018-03-02T05:15:26.196Z,39.85
2018-03-02T05:17:54.468Z,35.42
2018-03-02T05:20:23.515Z,36.92
2018-03-02T05:22:51.805Z,40.45
2018-03-02T05:25:20.097Z,35.13
2018-03-02T05:27:48.344Z,37.50
2018-03-02T05:30:16.629Z,32.50
2018-03-02T05:32:45.659Z,31.55
2018-03-02T05:35:13.946Z,30.58
2018-03-02T05:37:42.208Z,31.35
2018-03-02T05:40:11.252Z,32.63
2018-03-02T05:42:39.524Z,33.67
2018-03-02T05:45:07.808Z,31.08
2018-03-02T05:47:36.081Z,32.55
2018-03-02T05:50:05.148Z,33.05
2018-03-02T05:52:33.412Z,34.00
2018-03-02T05:55:01.689Z,35.75
2018-03-02T05:57:29.956Z,37.38
2018-03-02T05:59:58.989Z,32.90
2018-03-02T06:02:27.253Z,32.40
2018-03-02T06:04:55.532Z,36.72
2018-03-02T06:07:24.568Z,36.75
2018-03-02T06:09:52.864Z,35.63
2018-03-02T06:12:21.135Z,37.10
2018-03-02T06:14:49.400Z,34.55
2018-03-02T06:17:18.448Z,34.78
2018-03-02T06:19:46.705Z,32.97
2018-03-02T06:22:14.986Z,33.60
2018-03-02T06:24:43.248Z,36.70
2018-03-02T06:27:11.528Z,35.17
2018-03-02T06:29:39.788Z,35.47
2018-03-02T06:32:08.064Z,33.95
2018-03-02T06:34:36.324Z,33.08
2018-03-02T06:37:05.393Z,37.40
2018-03-02T06:39:33.629Z,37.03
2018-03-02T06:42:01.912Z,35.10
2018-03-02T06:44:30.204Z,37.17
2018-03-02T06:46:58.475Z,37.88
2018-03-02T06:49:27.510Z,34.28
2018-03-02T06:51:55.789Z,34.78
2018-03-02T06:54:24.056Z,34.42
2018-03-02T06:56:52.327Z,35.30
2018-03-02T06:59:20.607Z,34.67
2018-03-02T07:01:48.876Z,36.83
2018-03-02T07:04:17.161Z,35.95
2018-03-02T07:06:45.407Z,31.23
2018-03-02T07:09:14.433Z,36.10
2018-03-02T07:11:42.718Z,30.25
2018-03-02T07:14:10.976Z,31.48
2018-03-02T07:16:40.012Z,36.30
2018-03-02T07:19:08.284Z,34.80
2018-03-02T07:21:37.346Z,35.72
2018-03-02T07:24:05.600Z,33.20
2018-03-02T07:26:33.873Z,34.53
2018-03-02T07:29:02.131Z,33.65
2018-03-02T07:31:30.416Z,30.30
2018-03-02T07:33:58.679Z,35.80
2018-03-02T07:36:26.960Z,30.77
2018-03-02T07:38:55.216Z,33.88
2018-03-02T07:41:23.501Z,38.53
2018-03-02T07:43:51.760Z,34.63
2018-03-02T07:46:20.804Z,31.62
2018-03-02T07:48:49.068Z,34.67
2018-03-02T07:51:18.092Z,34.75
2018-03-02T07:53:46.360Z,35.88
2018-03-02T07:56:14.619Z,34.10
2018-03-02T07:58:42.895Z,33.20
2018-03-02T08:01:11.553Z,35.95
2018-03-02T08:03:39.824Z,34.35
2018-03-02T08:06:08.852Z,35.53
2018-03-02T08:08:37.129Z,35.65
2018-03-02T08:11:06.151Z,33.42
2018-03-02T08:13:34.419Z,35.10
2018-03-02T08:16:02.684Z,35.60
2018-03-02T08:18:30.964Z,31.40
2018-03-02T08:20:59.223Z,33.55
2018-03-02T08:23:27.509Z,36.13
2018-03-02T08:25:55.764Z,39.90
2018-03-02T08:28:24.032Z,34.10
2018-03-02T08:30:53.056Z,39.97
2018-03-02T08:33:21.324Z,38.10
2018-03-02T08:35:50.348Z,34.72
2018-03-02T08:38:18.615Z,33.80
2018-03-02T08:40:47.721Z,35.42
2018-03-02T08:43:15.988Z,35.53
2018-03-02T08:45:44.240Z,32.22
2018-03-02T08:48:12.507Z,32.85
2018-03-02T08:50:40.763Z,37.65
2018-03-02T08:53:09.042Z,32.90
2018-03-02T08:55:37.292Z,35.58
2018-03-02T08:58:05.560Z,35.10
2018-03-02T09:00:33.816Z,33.45
2018-03-02T09:03:02.080Z,30.88
2018-03-02T09:05:30.348Z,33.22
2018-03-02T09:07:58.610Z,32.28
2018-03-02T09:10:27.636Z,32.38
2018-03-02T09:12:55.900Z,35.38
2018-03-02T09:15:24.164Z,37.22
2018-03-02T09:17:52.428Z,31.92
2018-03-02T09:20:20.760Z,35.50
2018-03-02T09:22:49.036Z,36.97
2018-03-02T09:25:18.064Z,33.28
2018-03-02T09:27:47.089Z,31.65
2018-03-02T09:30:16.104Z,33.35
2018-03-02T09:32:44.389Z,32.28
2018-03-02T09:35:13.407Z,33.78
2018-03-02T09:37:41.672Z,36.95
2018-03-02T09:40:09.924Z,33.53
2018-03-02T09:42:38.960Z,35.05
2018-03-02T09:45:07.212Z,29.83
2018-03-02T09:47:35.488Z,32.15
2018-03-02T09:50:03.739Z,29.60
2018-03-02T09:52:31.996Z,34.58
2018-03-02T09:55:01.019Z,31.83
2018-03-02T09:57:29.280Z,36.58
2018-03-02T09:59:58.305Z,35.38
2018-03-02T10:02:26.577Z,34.90
2018-03-02T10:04:55.597Z,31.70
2018-03-02T10:07:23.864Z,31.27
2018-03-02T10:09:52.128Z,36.25
2018-03-02T10:12:20.400Z,30.23
2018-03-02T10:14:48.651Z,30.58
2018-03-02T10:17:16.919Z,30.92
2018-03-02T10:19:45.938Z,32.53
2018-03-02T10:22:14.205Z,29.42
2018-03-02T10:24:42.465Z,34.00
2018-03-02T10:27:10.740Z,37.08
2018-03-02T10:29:38.991Z,36.13
2018-03-02T10:32:07.256Z,39.10
2018-03-02T10:34:36.280Z,42.38
2018-03-02T10:37:05.325Z,39.72
2018-03-02T10:39:33.592Z,37.25
2018-03-02T10:42:01.850Z,35.08
2018-03-02T10:44:30.873Z,35.72
2018-03-02T10:46:59.136Z,37.33
2018-03-02T10:49:28.176Z,35.95
2018-03-02T10:51:56.476Z,38.55
2018-03-02T10:54:24.749Z,37.65
2018-03-02T10:56:53.010Z,41.72
2018-03-02T10:59:21.283Z,35.22
2018-03-02T11:01:54.345Z,35.47
2018-03-02T11:04:37.508Z,41.35
2018-03-02T11:07:05.770Z,37.95
2018-03-02T11:09:34.031Z,37.08
2018-03-02T11:12:02.292Z,39.28
2018-03-02T11:14:30.556Z,36.95
2018-03-02T11:16:58.813Z,37.15
2018-03-02T11:19:27.076Z,40.33
2018-03-02T11:21:56.101Z,39.47
2018-03-02T11:24:24.368Z,40.50
2018-03-02T11:26:53.389Z,38.08
2018-03-02T11:29:21.980Z,43.63
2018-03-02T11:31:50.240Z,42.45
2018-03-02T11:34:18.504Z,42.40
2018-03-02T11:36:46.769Z,37.15
2018-03-02T11:39:15.046Z,41.00
2018-03-02T11:41:43.300Z,40.28
2018-03-02T11:44:12.329Z,39.42
2018-03-02T11:46:40.586Z,35.72
2018-03-02T11:49:08.848Z,35.80
2018-03-02T11:51:37.100Z,42.45
2018-03-02T11:54:05.401Z,34.03
2018-03-02T11:56:34.388Z,37.35
2018-03-02T11:59:02.651Z,38.30
2018-03-02T12:01:31.683Z,38.67
2018-03-02T12:03:59.948Z,39.00
2018-03-02T12:06:28.968Z,39.05
2018-03-02T12:08:57.244Z,37.05
2018-03-02T12:11:26.269Z,36.40
2018-03-02T12:13:54.536Z,32.92
2018-03-02T12:16:23.555Z,37.35
2018-03-02T12:18:51.825Z,41.30
2018-03-02T12:21:20.853Z,45.75
2018-03-02T12:23:49.887Z,56.40
2018-03-02T12:26:18.148Z,54.85
2018-03-02T12:28:46.411Z,56.20
2018-03-02T12:31:14.668Z,60.30
2018-03-02T12:33:42.988Z,57.00
2018-03-02T12:36:11.189Z,59.83
2018-03-02T12:38:40.223Z,61.63
2018-03-02T12:41:08.485Z,54.88
2018-03-02T12:43:37.516Z,51.72
2018-03-02T12:46:05.775Z,59.05
2018-03-02T12:48:34.908Z,58.85
2018-03-02T12:51:03.160Z,60.40
2018-03-02T12:53:32.203Z,56.35
2018-03-02T12:56:00.460Z,57.30
2018-03-02T12:58:29.500Z,56.42
2018-03-02T13:00:57.755Z,57.13
2018-03-02T13:03:26.792Z,52.47
2018-03-02T13:05:55.059Z,53.95
2018-03-02T13:08:24.089Z,58.65
2018-03-02T13:10:52.344Z,56.15
2018-03-02T13:13:21.383Z,56.47
2018-03-02T13:15:49.644Z,56.53
2018-03-02T13:18:36.473Z,59.80
2018-03-02T13:21:04.964Z,73.78
2018-03-02T13:23:34.006Z,57.67
2018-03-02T13:26:02.270Z,61.60
2018-03-02T13:28:46.292Z,52.45
2018-03-02T13:31:14.552Z,57.97
2018-03-02T13:34:00.671Z,57.72
2018-03-02T13:36:28.987Z,56.97
2018-03-02T13:38:57.249Z,48.00
2018-03-02T13:41:43.412Z,52.62
2018-03-02T13:44:11.679Z,57.90
2018-03-02T13:46:40.708Z,47.15
2018-03-02T13:49:26.843Z,51.20
2018-03-02T13:51:55.092Z,49.28
2018-03-02T13:54:23.394Z,48.40
2018-03-02T13:57:09.356Z,51.17
2018-03-02T13:59:37.620Z,46.88
2018-03-02T14:02:05.878Z,48.35
2018-03-02T14:04:53.044Z,49.78
2018-03-02T14:07:21.315Z,51.35
2018-03-02T14:09:49.603Z,47.70
2018-03-02T14:12:17.863Z,52.55
2018-03-02T14:14:46.128Z,46.58
2018-03-02T14:17:15.167Z,49.05
2018-03-02T14:19:44.188Z,54.17
2018-03-02T14:22:12.454Z,48.13
2018-03-02T14:24:42.311Z,49.45
2018-03-02T14:27:10.568Z,50.20
2018-03-02T14:29:38.844Z,49.92
2018-03-02T14:32:07.872Z,45.17
2018-03-02T14:34:36.133Z,53.35
2018-03-02T14:37:05.160Z,50.92
2018-03-02T14:39:33.462Z,52.60
2018-03-02T14:42:02.453Z,53.17
2018-03-02T14:44:30.703Z,62.03
2018-03-02T14:46:58.967Z,58.28
2018-03-02T14:49:27.215Z,60.47
2018-03-02T14:51:55.483Z,59.75
2018-03-02T14:54:24.499Z,65.22
2018-03-02T14:56:52.765Z,62.70
2018-03-02T14:59:21.048Z,59.97
2018-03-02T15:01:49.308Z,57.60
2018-03-02T15:04:17.563Z,60.30
2018-03-02T15:06:45.828Z,61.42
2018-03-02T15:09:14.848Z,64.00
2018-03-02T15:11:43.114Z,61.67
2018-03-02T15:14:11.363Z,59.65
2018-03-02T15:16:39.627Z,62.95
2018-03-02T15:19:07.879Z,63.13
2018-03-02T15:21:36.915Z,53.90
2018-03-02T15:24:05.174Z,67.78
2018-03-02T15:26:34.206Z,72.82
2018-03-02T15:29:02.467Z,57.28
2018-03-02T15:31:31.492Z,61.80
2018-03-02T15:33:59.762Z,72.85
2018-03-02T15:36:28.792Z,66.55
2018-03-02T15:38:57.047Z,57.50
2018-03-02T15:41:25.315Z,66.00
2018-03-02T15:43:53.576Z,67.82
2018-03-02T15:46:21.840Z,63.53
2018-03-02T15:48:50.099Z,64.87
2018-03-02T15:51:18.366Z,58.22
2018-03-02T15:53:46.620Z,63.53
2018-03-02T15:56:14.892Z,61.58
2018-03-02T15:58:43.147Z,57.45
2018-03-02T16:01:11.420Z,58.53
2018-03-02T16:03:39.674Z,59.25
2018-03-02T16:06:07.940Z,64.87
2018-03-02T16:08:36.963Z,55.15
2018-03-02T16:11:05.232Z,66.18
2018-03-02T16:13:34.248Z,58.28
2018-03-02T16:16:02.525Z,60.58
2018-03-02T16:18:31.544Z,62.92
2018-03-02T16:20:59.808Z,55.72
2018-03-02T16:23:28.826Z,55.55
2018-03-02T16:25:57.110Z,61.60
2018-03-02T16:28:26.131Z,59.90
2018-03-02T16:30:54.400Z,55.90
2018-03-02T16:33:23.422Z,53.72
2018-03-02T16:35:51.684Z,51.22
2018-03-02T16:38:20.707Z,57.05
2018-03-02T16:40:48.975Z,61.13
2018-03-02T16:43:17.999Z,57.95
2018-03-02T16:45:46.284Z,57.33
2018-03-02T16:48:15.300Z,55.42
2018-03-02T16:50:44.006Z,57.28
2018-03-02T16:53:13.082Z,57.08
2018-03-02T16:55:41.365Z,50.10
2018-03-02T16:58:09.617Z,48.87
2018-03-02T17:00:38.651Z,58.47
2018-03-02T17:03:06.908Z,56.60
2018-03-02T17:05:35.211Z,49.03
2018-03-02T17:08:03.431Z,51.65
2018-03-02T17:10:32.455Z,52.60
2018-03-02T17:13:00.723Z,57.97
2018-03-02T17:15:29.748Z,54.45
2018-03-02T17:17:58.020Z,55.20
2018-03-02T17:20:27.046Z,54.33
2018-03-02T17:22:55.302Z,54.20
2018-03-02T17:25:23.558Z,52.55
2018-03-02T17:27:51.828Z,53.78
2018-03-02T17:30:20.086Z,57.10
2018-03-02T17:32:49.116Z,53.92
2018-03-02T17:35:17.371Z,51.17
2018-03-02T17:37:46.403Z,55.95
2018-03-02T17:40:14.659Z,57.28
2018-03-02T17:42:43.691Z,53.80
2018-03-02T17:45:11.985Z,51.75
2018-03-02T17:47:40.256Z,59.63
2018-03-02T17:50:09.279Z,54.70
2018-03-02T17:52:37.559Z,57.50
2018-03-02T17:55:06.580Z,55.33
2018-03-02T17:57:34.843Z,53.95
2018-03-02T18:00:03.914Z,53.65
2018-03-02T18:02:32.131Z,57.03
2018-03-02T18:05:01.159Z,52.20
2018-03-02T18:07:29.439Z,55.92
2018-03-02T18:09:58.450Z,55.75
2018-03-02T18:12:26.719Z,58.53
2018-03-02T18:14:55.747Z,51.83
2018-03-02T18:17:24.011Z,55.00
2018-03-02T18:19:53.039Z,52.22
2018-03-02T18:22:21.324Z,57.97
2018-03-02T18:24:49.578Z,51.47
2018-03-02T18:27:17.848Z,54.90
2018-03-02T18:29:46.111Z,54.75
2018-03-02T18:32:14.379Z,54.70
2018-03-02T18:34:42.637Z,59.20
2018-03-02T18:37:10.907Z,55.05
2018-03-02T18:39:39.167Z,53.53
2018-03-02T18:42:07.435Z,52.60
2018-03-02T18:44:35.693Z,60.70
2018-03-02T18:47:04.727Z,51.05
2018-03-02T18:49:32.998Z,52.95
2018-03-02T18:52:02.031Z,55.25
2018-03-02T18:54:30.300Z,51.78
2018-03-02T18:56:58.562Z,56.97
2018-03-02T18:59:26.820Z,55.55
2018-03-02T19:01:55.091Z,60.55
2018-03-02T19:04:23.351Z,57.30
2018-03-02T19:06:51.629Z,53.25
2018-03-02T19:09:20.643Z,51.65
2018-03-02T19:11:48.911Z,57.90
2018-03-02T19:14:17.163Z,51.20
2018-03-02T19:16:45.427Z,49.40
2018-03-02T19:19:13.687Z,61.55
2018-03-02T19:21:42.755Z,54.60
2018-03-02T19:24:11.011Z,50.80
2018-03-02T19:26:39.279Z,49.60
2018-03-02T19:29:08.308Z,54.70
2018-03-02T19:31:36.572Z,50.65
2018-03-02T19:34:04.827Z,53.97
2018-03-02T19:36:33.083Z,53.53
2018-03-02T19:39:01.351Z,59.20
2018-03-02T19:41:29.607Z,53.25
2018-03-02T19:43:58.639Z,52.20
2018-03-02T19:46:26.903Z,55.03
2018-03-02T19:48:55.930Z,48.38
2018-03-02T19:51:24.187Z,51.85
2018-03-02T19:53:52.459Z,53.30
2018-03-02T19:56:20.715Z,53.47
2018-03-02T19:58:48.984Z,58.25
2018-03-02T20:01:17.247Z,58.13
2018-03-02T20:03:46.344Z,52.70
2018-03-02T20:06:14.559Z,57.75
2018-03-02T20:08:42.827Z,55.05
2018-03-02T20:11:11.890Z,57.10
2018-03-02T20:13:40.124Z,55.47
2018-03-02T20:16:09.148Z,59.78
2018-03-02T20:18:37.418Z,55.60
2018-03-02T20:21:06.448Z,52.90
2018-03-02T20:23:34.716Z,54.20
2018-03-02T20:26:03.743Z,62.13
2018-03-02T20:28:32.007Z,56.33
2018-03-02T20:31:01.036Z,59.05
2018-03-02T20:33:29.304Z,53.58
2018-03-02T20:35:58.328Z,54.13
2018-03-02T20:38:26.599Z,54.75
2018-03-02T20:40:55.627Z,53.00
2018-03-02T20:43:23.887Z,50.00
2018-03-02T20:45:52.911Z,49.15
2018-03-02T20:48:21.179Z,55.70
2018-03-02T20:50:50.220Z,56.35
2018-03-02T20:53:18.483Z,63.05
2018-03-02T20:55:47.507Z,57.35
2018-03-02T20:58:15.824Z,58.40
2018-03-02T21:00:44.044Z,52.15
2018-03-02T21:03:12.311Z,56.67
2018-03-02T21:05:40.575Z,55.85
2018-03-02T21:08:08.847Z,59.35
2018-03-02T21:10:37.106Z,59.00
2018-03-02T21:13:05.373Z,53.78
2018-03-02T21:15:33.631Z,54.58
2018-03-02T21:18:01.900Z,53.63
2018-03-02T21:20:30.156Z,54.25
2018-03-02T21:22:59.205Z,54.38
2018-03-02T21:25:27.442Z,57.50
2018-03-02T21:27:55.707Z,59.03
2018-03-02T21:30:23.972Z,54.90
2018-03-02T21:32:52.235Z,56.53
2018-03-02T21:35:20.492Z,56.60
2018-03-02T21:37:48.759Z,56.37
2018-03-02T21:40:17.015Z,58.63
2018-03-02T21:42:45.279Z,55.30
2018-03-02T21:45:14.300Z,59.70
2018-03-02T21:47:42.556Z,62.05
2018-03-02T21:50:10.827Z,60.90
2018-03-02T21:52:39.083Z,59.70
2018-03-02T21:55:07.352Z,56.40
2018-03-02T21:57:35.606Z,56.85
2018-03-02T22:00:03.871Z,58.03
2018-03-02T22:02:32.129Z,57.30
2018-03-02T22:05:00.396Z,56.15
2018-03-02T22:07:28.652Z,56.03
2018-03-02T22:09:56.920Z,62.97
2018-03-02T22:12:25.175Z,53.83
2018-03-02T22:14:54.207Z,61.30
2018-03-02T22:17:22.472Z,58.22
2018-03-02T22:19:51.427Z,59.10
2018-03-02T22:22:19.679Z,56.08
2018-03-02T22:24:47.946Z,57.15
2018-03-02T22:27:16.203Z,60.40
2018-03-02T22:29:45.239Z,66.85
2018-03-02T22:32:13.494Z,58.03
2018-03-02T22:34:41.759Z,56.05
2018-03-02T22:37:10.018Z,58.10
2018-03-02T22:39:38.280Z,63.42
2018-03-02T22:42:06.554Z,57.92
2018-03-02T22:44:34.802Z,62.35
2018-03-02T22:47:03.056Z,57.62
2018-03-02T22:49:31.319Z,56.85
2018-03-02T22:52:00.341Z,59.63
2018-03-02T22:54:28.603Z,60.72
2018-03-02T22:56:57.637Z,58.55
2018-03-02T22:59:25.903Z,58.22
2018-03-02T23:01:54.930Z,60.83
2018-03-02T23:04:23.206Z,60.72
2018-03-02T23:06:52.235Z,58.97
2018-03-02T23:09:20.506Z,58.35
2018-03-02T23:11:49.532Z,54.53
2018-03-02T23:14:17.800Z,58.53
2018-03-02T23:16:46.819Z,59.97
2018-03-02T23:19:15.088Z,63.40
2018-03-02T23:21:44.811Z,61.75
2018-03-02T23:24:13.847Z,55.83
2018-03-02T23:26:42.103Z,60.22
2018-03-02T23:29:11.146Z,58.85
2018-03-02T23:31:39.399Z,54.67
2018-03-02T23:34:08.436Z,61.40
2018-03-02T23:36:36.691Z,61.65
2018-03-02T23:39:05.724Z,58.40
2018-03-02T23:41:33.980Z,59.67
2018-03-02T23:44:03.011Z,57.55
2018-03-02T23:46:31.271Z,52.85
2018-03-02T23:49:00.308Z,53.87
2018-03-02T23:51:28.559Z,59.05
2018-03-02T23:53:57.597Z,56.65
2018-03-02T23:56:25.850Z,55.72
2018-03-02T23:58:54.115Z,51.90
